Time;durP1;ratioP1;P1;durP2;ratioP2;P2;SDS_P1;SDS_P2;PMS_P1;PMS_P2;Temp;Humidity;BMP_temperature;BMP_pressure;BME280_temperature;BME280_humidity;BME280_pressure;Samples;Min_cycle;Max_cycle;Signal;HPM_P1;HPM_P2
2022/11/17 00:02:22;;;;;;;7.47;1.20;;;10.50;99.90;;;;;;4956799;28;20019;-69
2022/11/17 00:04:47;;;;;;;5.93;1.35;;;10.50;99.90;;;;;;4957267;28;20015;-69
2022/11/17 00:07:13;;;;;;;3.25;1.52;;;10.60;99.90;;;;;;4974005;28;20022;-69
2022/11/17 00:09:38;;;;;;;2.28;1.08;;;10.60;99.90;;;;;;4956825;28;20367;-69
2022/11/17 00:14:48;;;;;;;4.18;1.10;;;10.40;99.90;;;;;;4974096;28;20033;-69
2022/11/17 00:17:13;;;;;;;5.88;1.10;;;10.40;99.90;;;;;;4977297;28;20019;-69
2022/11/17 00:22:23;;;;;;;7.90;1.60;;;10.40;99.90;;;;;;4978279;28;20169;-69
2022/11/17 00:24:49;;;;;;;4.72;1.60;;;10.40;99.90;;;;;;4960159;28;20062;-69
2022/11/17 00:27:15;;;;;;;3.67;1.23;;;10.40;99.90;;;;;;4960949;28;20027;-69
2022/11/17 00:29:41;;;;;;;2.60;1.00;;;10.40;99.90;;;;;;4959907;28;20031;-69
2022/11/17 00:35:08;;;;;;;;;;;10.80;99.90;;;;;;4947891;28;20161;-69
2022/11/17 00:38:40;;;;;;;7.05;1.30;;;10.90;99.90;;;;;;4960859;28;19941;-69
2022/11/17 00:40:34;;;;;;;2.53;1.10;;;10.90;99.90;;;;;;4960346;28;20090;-69
2022/11/17 00:43:00;;;;;;;2.67;1.15;;;10.70;99.90;;;;;;4960191;28;20027;-69
2022/11/17 00:45:25;;;;;;;8.63;1.23;;;10.50;99.90;;;;;;4977426;28;20029;-69
2022/11/17 00:47:51;;;;;;;2.58;1.10;;;10.40;99.90;;;;;;4960118;28;20027;-69
2022/11/17 00:50:16;;;;;;;3.97;1.10;;;10.40;99.90;;;;;;4959669;28;20121;-69
2022/11/17 00:52:42;;;;;;;2.53;1.73;;;10.40;99.90;;;;;;4959768;28;20030;-69
2022/11/17 00:55:08;;;;;;;2.75;1.00;;;10.50;99.90;;;;;;4959753;28;20497;-69
2022/11/17 00:57:33;;;;;;;3.55;1.48;;;10.40;99.90;;;;;;4959640;28;20023;-69
2022/11/17 00:59:59;;;;;;;8.43;1.50;;;10.30;99.90;;;;;;4976840;28;20023;-69
2022/11/17 01:02:24;;;;;;;7.88;1.20;;;10.30;99.90;;;;;;4959832;28;20073;-69
2022/11/17 01:04:50;;;;;;;7.60;1.60;;;10.30;99.90;;;;;;4959601;28;20069;-69
2022/11/17 01:07:15;;;;;;;4.32;1.35;;;10.40;99.90;;;;;;4959739;28;20023;-69
2022/11/17 01:09:41;;;;;;;5.28;1.30;;;10.30;99.90;;;;;;4960388;28;20026;-69
2022/11/17 01:12:06;;;;;;;5.07;2.45;;;10.30;99.90;;;;;;4976681;28;20085;-69
2022/11/17 01:14:32;;;;;;;6.05;1.38;;;10.10;99.90;;;;;;4976897;28;20019;-69
2022/11/17 01:16:57;;;;;;;6.60;1.50;;;10.10;99.90;;;;;;4959376;28;20026;-69
2022/11/17 01:19:23;;;;;;;2.92;1.30;;;10.20;99.90;;;;;;4976662;28;20560;-69
2022/11/17 01:21:49;;;;;;;4.97;2.10;;;10.10;99.90;;;;;;4976925;28;20035;-69
2022/11/17 01:24:15;;;;;;;5.53;1.98;;;10.20;99.90;;;;;;4960218;28;20027;-69
2022/11/17 01:26:42;;;;;;;3.63;1.33;;;10.20;99.90;;;;;;4959165;28;20050;-68
2022/11/17 01:29:09;;;;;;;6.85;1.80;;;10.20;99.90;;;;;;4959414;28;20031;-68
2022/11/17 01:31:38;;;;;;;8.13;2.50;;;10.30;99.90;;;;;;4976408;28;20034;-68
2022/11/17 01:34:04;;;;;;;4.03;1.67;;;10.20;99.90;;;;;;4959147;28;20022;-68
2022/11/17 01:39:16;;;;;;;5.40;1.60;;;10.10;99.90;;;;;;4976833;28;20034;-68
2022/11/17 01:41:42;;;;;;;2.90;1.52;;;10.00;99.90;;;;;;4976206;28;20375;-68
2022/11/17 01:44:47;;;;;;;4.05;1.63;;;10.00;99.90;;;;;;4976295;28;20038;-68
2022/11/17 01:47:18;;;;;;;4.55;1.73;;;9.90;99.90;;;;;;4959213;28;20039;-68
2022/11/17 01:49:45;;;;;;;4.07;1.60;;;10.00;99.90;;;;;;4975977;28;20038;-68
2022/11/17 01:52:11;;;;;;;3.00;1.13;;;10.00;99.90;;;;;;4976370;28;20045;-68
2022/11/17 01:54:40;;;;;;;2.83;1.48;;;10.00;99.90;;;;;;4958890;28;20081;-68
2022/11/17 01:57:13;;;;;;;6.32;1.52;;;10.00;99.90;;;;;;4958720;28;20018;-68
2022/11/17 01:59:47;;;;;;;8.68;1.80;;;10.00;99.90;;;;;;4959405;28;20030;-68
2022/11/17 02:02:12;;;;;;;4.93;1.83;;;10.00;99.90;;;;;;4958617;28;20027;-68
2022/11/17 02:04:56;;;;;;;6.03;1.80;;;10.00;99.90;;;;;;4976013;28;20367;-68
2022/11/17 02:07:25;;;;;;;18.40;2.25;;;10.00;99.90;;;;;;4975824;28;20032;-68
2022/11/17 02:09:52;;;;;;;5.20;1.80;;;10.10;99.90;;;;;;4975596;28;20081;-68
2022/11/17 02:12:20;;;;;;;9.45;2.05;;;10.10;99.90;;;;;;4975727;28;20031;-68
2022/11/17 02:14:48;;;;;;;5.13;1.85;;;10.00;99.90;;;;;;4975692;28;20031;-68
2022/11/17 02:17:13;;;;;;;8.82;1.75;;;10.00;99.90;;;;;;4958525;28;20031;-68
2022/11/17 02:19:41;;;;;;;8.10;2.10;;;10.00;99.90;;;;;;4958413;28;20142;-68
2022/11/17 02:22:26;;;;;;;4.50;1.92;;;10.00;99.90;;;;;;4958048;28;20030;-68
2022/11/17 02:25:24;;;;;;;7.68;2.10;;;10.00;99.90;;;;;;4958350;28;20031;-68
2022/11/17 02:28:08;;;;;;;2.65;1.85;;;10.00;99.90;;;;;;4958190;28;20031;-68
2022/11/17 02:30:47;;;;;;;4.70;2.17;;;10.00;99.90;;;;;;4959269;28;20054;-68
2022/11/17 02:33:48;;;;;;;8.65;2.28;;;10.10;99.90;;;;;;4957945;28;20031;-68
2022/11/17 02:36:44;;;;;;;3.85;2.38;;;10.10;99.90;;;;;;4957987;28;20023;-68
2022/11/17 02:39:21;;;;;;;6.47;2.50;;;10.10;99.90;;;;;;4957829;28;20033;-68
2022/11/17 02:42:08;;;;;;;5.43;2.72;;;10.00;99.90;;;;;;4958521;28;20426;-68
2022/11/17 02:44:44;;;;;;;11.35;3.10;;;10.10;99.90;;;;;;4958263;28;20022;-68
2022/11/17 02:47:15;;;;;;;8.68;3.17;;;10.10;99.90;;;;;;4957707;28;20031;-68
2022/11/17 02:49:49;;;;;;;8.60;3.38;;;10.00;99.90;;;;;;4975248;28;20027;-68
2022/11/17 02:52:16;;;;;;;6.50;3.38;;;9.90;99.90;;;;;;4975226;28;20030;-68
2022/11/17 02:54:42;;;;;;;5.18;2.95;;;9.90;99.90;;;;;;4974935;28;20085;-68
2022/11/17 02:57:27;;;;;;;4.28;2.70;;;9.90;99.90;;;;;;4958093;28;20030;-68
2022/11/17 02:59:53;;;;;;;4.93;3.05;;;10.00;99.90;;;;;;4957745;28;20023;-68
2022/11/17 03:02:24;;;;;;;4.68;3.03;;;10.10;99.90;;;;;;4974726;28;20134;-68
2022/11/17 03:05:13;;;;;;;5.60;2.97;;;10.10;99.90;;;;;;4958502;28;20026;-68
2022/11/17 03:08:07;;;;;;;4.80;2.85;;;10.00;99.90;;;;;;4957107;28;20129;-68
2022/11/17 03:10:58;;;;;;;7.18;3.55;;;10.00;99.90;;;;;;4974624;28;20019;-68
2022/11/17 03:13:54;;;;;;;8.63;3.63;;;9.90;99.90;;;;;;4957424;28;20034;-68
2022/11/17 03:16:54;;;;;;;6.60;3.60;;;9.90;99.90;;;;;;4957362;28;20050;-68
2022/11/17 03:19:34;;;;;;;7.68;4.00;;;9.90;99.90;;;;;;4974485;28;20026;-69
2022/11/17 03:22:05;;;;;;;9.07;4.07;;;9.80;99.90;;;;;;4958071;28;20035;-69
2022/11/17 03:24:51;;;;;;;5.82;4.28;;;9.70;99.90;;;;;;4974539;28;20022;-69
2022/11/17 03:27:25;;;;;;;8.05;4.05;;;9.70;99.90;;;;;;4957346;28;20038;-69
2022/11/17 03:29:55;;;;;;;8.23;4.00;;;9.60;99.90;;;;;;4957381;28;20050;-69
2022/11/17 03:32:22;;;;;;;7.72;4.25;;;9.60;99.90;;;;;;4974634;28;20026;-68
2022/11/17 03:35:03;;;;;;;7.50;4.50;;;9.60;99.90;;;;;;4957026;28;20045;-68
2022/11/17 03:37:32;;;;;;;10.85;5.25;;;9.50;99.90;;;;;;4957080;28;20034;-68
2022/11/17 03:40:03;;;;;;;7.88;3.63;;;9.60;99.90;;;;;;4956833;28;20029;-68
2022/11/17 03:42:32;;;;;;;6.80;4.07;;;9.60;99.90;;;;;;4956926;28;20055;-68
2022/11/17 03:45:03;;;;;;;9.73;4.72;;;9.60;99.90;;;;;;4956956;28;20023;-68
2022/11/17 03:47:31;;;;;;;11.27;4.17;;;9.60;99.90;;;;;;4957787;28;20030;-68
2022/11/17 03:50:06;;;;;;;9.93;4.43;;;9.60;99.90;;;;;;4956832;28;20058;-68
2022/11/17 03:52:33;;;;;;;11.07;5.25;;;9.60;99.90;;;;;;4960538;28;20027;-68
2022/11/17 03:54:59;;;;;;;10.02;4.38;;;9.60;99.90;;;;;;4978234;28;20019;-68
2022/11/17 03:57:42;;;;;;;7.75;3.97;;;9.60;99.90;;;;;;4978080;28;20027;-68
2022/11/17 04:00:11;;;;;;;8.68;5.13;;;9.60;99.90;;;;;;4960813;28;20054;-68
2022/11/17 04:02:40;;;;;;;9.25;4.80;;;9.60;99.90;;;;;;4977965;28;20065;-68
2022/11/17 04:05:07;;;;;;;9.70;4.85;;;9.60;99.90;;;;;;4961103;28;20030;-68
2022/11/17 04:07:50;;;;;;;14.13;5.40;;;9.60;99.90;;;;;;4960914;28;20026;-68
2022/11/17 04:10:23;;;;;;;8.30;4.55;;;9.50;99.90;;;;;;4960513;28;20023;-68
2022/11/17 04:18:19;;;;;;;16.05;6.70;;;9.50;99.90;;;;;;4977598;28;20033;-68
2022/11/17 04:20:48;;;;;;;9.07;4.93;;;9.40;99.90;;;;;;4977644;28;20023;-68
2022/11/17 04:23:14;;;;;;;9.48;5.28;;;9.40;99.90;;;;;;4960244;28;20033;-68
2022/11/17 04:28:37;;;;;;;10.68;5.63;;;9.40;99.90;;;;;;4978168;28;20054;-70
2022/11/17 04:31:13;;;;;;;8.50;4.68;;;9.40;99.90;;;;;;4960138;28;20034;-71
2022/11/17 04:33:47;;;;;;;12.73;4.82;;;9.40;99.90;;;;;;4977668;28;20061;-71
2022/11/17 04:36:18;;;;;;;8.43;5.07;;;9.50;99.90;;;;;;4977407;28;20018;-71
2022/11/17 04:38:47;;;;;;;8.83;5.00;;;9.50;99.90;;;;;;4977232;28;20026;-71
2022/11/17 04:43:59;;;;;;;11.85;4.97;;;9.50;99.90;;;;;;4977577;28;20054;-70
2022/11/17 04:46:26;;;;;;;12.95;4.82;;;9.40;99.90;;;;;;4959856;28;20027;-70
2022/11/17 04:48:54;;;;;;;11.65;4.80;;;9.40;99.90;;;;;;4977264;28;20113;-70
2022/11/17 04:51:20;;;;;;;8.35;4.35;;;9.50;99.90;;;;;;4959698;28;20027;-70
2022/11/17 04:53:47;;;;;;;12.60;5.25;;;9.40;99.90;;;;;;4976991;28;20023;-70
2022/11/17 04:56:12;;;;;;;10.73;4.97;;;9.40;99.90;;;;;;4976957;28;20082;-70
2022/11/17 04:58:39;;;;;;;9.75;4.63;;;9.40;99.90;;;;;;4959525;28;20027;-70
2022/11/17 05:01:14;;;;;;;7.97;4.72;;;9.40;99.90;;;;;;4959433;28;20023;-70
2022/11/17 05:03:48;;;;;;;6.50;4.28;;;9.40;99.90;;;;;;4976828;28;20054;-70
2022/11/17 05:06:20;;;;;;;6.38;4.25;;;9.40;99.90;;;;;;4959492;28;20027;-70
2022/11/17 05:08:45;;;;;;;6.05;4.00;;;9.50;99.90;;;;;;4960263;28;20114;-69
2022/11/17 05:13:57;;;;;;;7.10;3.85;;;9.60;99.90;;;;;;4977284;28;20034;-69
2022/11/17 05:19:11;;;;;;;14.48;4.43;;;9.70;99.90;;;;;;4977012;28;20034;-69
2022/11/17 05:21:36;;;;;;;5.53;3.50;;;9.80;99.90;;;;;;4959157;28;20030;-69
2022/11/17 05:24:02;;;;;;;8.57;4.20;;;9.80;99.90;;;;;;4959256;28;20027;-69
2022/11/17 05:26:30;;;;;;;11.52;3.42;;;9.80;99.90;;;;;;4976823;28;20029;-69
2022/11/17 05:28:57;;;;;;;4.78;3.13;;;9.80;99.90;;;;;;4958877;28;20073;-69
2022/11/17 05:31:24;;;;;;;7.68;3.50;;;9.90;99.90;;;;;;4976341;28;20052;-69
2022/11/17 05:33:50;;;;;;;6.18;3.63;;;9.80;99.90;;;;;;4976374;28;20027;-68
2022/11/17 05:36:16;;;;;;;6.80;3.63;;;9.80;99.90;;;;;;4958971;28;20026;-68
2022/11/17 05:38:42;;;;;;;7.80;3.65;;;9.90;99.90;;;;;;4958861;28;20023;-70
2022/11/17 05:41:08;;;;;;;4.55;3.42;;;9.80;99.90;;;;;;4959233;28;20073;-70
2022/11/17 05:43:34;;;;;;;4.40;3.00;;;9.80;99.90;;;;;;4958760;28;20076;-70
2022/11/17 05:45:59;;;;;;;5.65;3.40;;;9.90;99.90;;;;;;4959060;28;20067;-69
2022/11/17 05:48:25;;;;;;;7.50;3.50;;;10.00;99.90;;;;;;4958962;28;20085;-69
2022/11/17 05:50:52;;;;;;;5.93;3.55;;;9.90;99.90;;;;;;4958947;28;20104;-68
2022/11/17 05:53:18;;;;;;;8.18;3.65;;;9.80;99.90;;;;;;4958617;28;20482;-68
2022/11/17 05:55:44;;;;;;;6.28;3.47;;;9.70;99.90;;;;;;4975875;28;20023;-68
2022/11/17 05:58:17;;;;;;;9.75;3.00;;;9.80;99.90;;;;;;4958770;28;20386;-68
2022/11/17 06:00:43;;;;;;;8.50;3.53;;;9.70;99.90;;;;;;4958500;28;20038;-68
2022/11/17 06:03:16;;;;;;;8.02;3.40;;;9.70;99.90;;;;;;4975768;28;20034;-68
2022/11/17 06:05:42;;;;;;;6.35;3.35;;;9.70;99.90;;;;;;4958908;28;20030;-68
2022/11/17 06:08:08;;;;;;;6.45;3.45;;;9.70;99.90;;;;;;4975587;28;20026;-68
2022/11/17 06:10:34;;;;;;;7.35;3.60;;;9.70;99.90;;;;;;4975542;28;20037;-68
2022/11/17 06:13:00;;;;;;;7.70;3.10;;;9.80;99.90;;;;;;4958953;28;20112;-68
2022/11/17 06:15:25;;;;;;;7.28;3.38;;;9.80;99.90;;;;;;4958248;28;20022;-68
2022/11/17 06:18:14;;;;;;;4.85;2.83;;;9.80;99.90;;;;;;4976006;28;20027;-68
2022/11/17 06:20:43;;;;;;;8.00;3.35;;;9.80;99.90;;;;;;4975218;28;20033;-68
2022/11/17 06:23:10;;;;;;;5.80;3.22;;;9.90;99.90;;;;;;4975352;28;20031;-68
2022/11/17 06:25:37;;;;;;;5.10;3.17;;;9.70;99.90;;;;;;4957911;28;20023;-68
2022/11/17 06:28:18;;;;;;;9.63;3.22;;;9.60;99.90;;;;;;4975123;28;20023;-68
2022/11/17 06:30:43;;;;;;;4.68;3.17;;;9.50;99.90;;;;;;4975151;28;20027;-68
2022/11/17 06:33:13;;;;;;;5.68;2.90;;;9.60;99.90;;;;;;4957893;28;20026;-68
2022/11/17 06:35:41;;;;;;;5.00;3.00;;;9.80;99.90;;;;;;4957834;28;20498;-68
2022/11/17 06:38:06;;;;;;;4.20;2.65;;;9.80;99.90;;;;;;4975631;28;20023;-68
2022/11/17 06:40:32;;;;;;;5.70;3.30;;;9.80;99.90;;;;;;4975086;28;20042;-68
2022/11/17 06:43:08;;;;;;;5.03;3.25;;;9.70;99.90;;;;;;4957961;28;20061;-68
2022/11/17 06:45:35;;;;;;;6.63;3.45;;;9.60;99.90;;;;;;4958205;28;20027;-68
2022/11/17 06:48:01;;;;;;;5.80;3.97;;;9.60;99.90;;;;;;4957649;28;20026;-68
2022/11/17 06:50:27;;;;;;;5.50;3.58;;;9.60;99.90;;;;;;4958372;28;20030;-68
2022/11/17 06:52:59;;;;;;;6.50;3.63;;;9.70;99.90;;;;;;4958288;28;20027;-68
2022/11/17 06:55:26;;;;;;;5.40;3.10;;;9.60;99.90;;;;;;4957573;28;20019;-68
2022/11/17 06:57:56;;;;;;;6.32;3.92;;;9.60;99.90;;;;;;4974967;28;20045;-68
2022/11/17 07:00:22;;;;;;;8.40;3.58;;;9.70;99.90;;;;;;4957935;28;20023;-69
2022/11/17 07:02:47;;;;;;;4.22;2.83;;;9.60;99.90;;;;;;4958281;28;20023;-70
2022/11/17 07:05:13;;;;;;;6.63;3.28;;;9.70;99.90;;;;;;4974715;28;20029;-70
2022/11/17 07:07:38;;;;;;;5.75;3.33;;;9.80;99.90;;;;;;4957293;28;20035;-68
2022/11/17 07:10:04;;;;;;;5.97;3.45;;;10.00;99.90;;;;;;4957280;28;20035;-68
2022/11/17 07:12:31;;;;;;;5.25;3.05;;;10.00;99.90;;;;;;4957614;28;20034;-67
2022/11/17 07:14:57;;;;;;;5.32;3.10;;;10.00;99.90;;;;;;4957270;28;20471;-67
2022/11/17 07:17:22;;;;;;;5.93;2.95;;;10.00;99.90;;;;;;4957142;28;20023;-67
2022/11/17 07:19:48;;;;;;;8.07;3.53;;;9.90;99.90;;;;;;4974348;28;20027;-67
2022/11/17 07:22:13;;;;;;;8.90;3.90;;;9.80;99.90;;;;;;4957176;28;20030;-68
2022/11/17 07:24:39;;;;;;;9.80;3.30;;;9.70;99.90;;;;;;4957281;28;20027;-67
2022/11/17 07:27:05;;;;;;;3.47;2.42;;;9.90;99.90;;;;;;4957352;28;20094;-67
2022/11/17 07:29:31;;;;;;;7.68;2.30;;;10.00;99.90;;;;;;4957261;28;20030;-67
2022/11/17 07:31:56;;;;;;;6.03;2.90;;;10.10;99.90;;;;;;4958064;28;20030;-68
2022/11/17 07:34:22;;;;;;;3.80;2.55;;;10.10;99.90;;;;;;4974417;28;20023;-67
2022/11/17 07:36:47;;;;;;;5.70;2.60;;;10.10;99.90;;;;;;4957036;28;20074;-68
2022/11/17 07:39:14;;;;;;;4.63;2.95;;;10.00;99.90;;;;;;4957273;28;20019;-68
2022/11/17 07:41:40;;;;;;;7.47;3.15;;;10.10;99.90;;;;;;4957201;28;20616;-68
2022/11/17 07:44:06;;;;;;;3.25;2.25;;;10.00;99.90;;;;;;4956993;28;20062;-68
2022/11/17 07:46:32;;;;;;;4.80;2.90;;;9.90;99.90;;;;;;4956893;28;20026;-68
2022/11/17 07:48:57;;;;;;;6.93;2.70;;;9.90;99.90;;;;;;4974025;28;20034;-68
2022/11/17 07:51:23;;;;;;;3.65;2.63;;;10.00;99.90;;;;;;4974160;28;20057;-68
2022/11/17 07:53:49;;;;;;;4.28;2.55;;;9.90;99.90;;;;;;4973946;28;20478;-68
2022/11/17 07:56:14;;;;;;;4.90;2.13;;;9.90;99.90;;;;;;4956912;28;20027;-68
2022/11/17 07:58:40;;;;;;;5.70;2.60;;;10.00;99.90;;;;;;4956670;28;20030;-68
2022/11/17 08:01:07;;;;;;;2.90;2.33;;;9.90;99.90;;;;;;4973933;28;20034;-68
2022/11/17 08:03:33;;;;;;;4.40;2.67;;;9.90;99.90;;;;;;4956786;28;20090;-68
2022/11/17 08:06:04;;;;;;;5.63;2.47;;;9.80;99.90;;;;;;4957047;28;20061;-68
2022/11/17 08:08:30;;;;;;;4.07;2.45;;;9.80;99.90;;;;;;4974093;28;20034;-68
2022/11/17 08:10:55;;;;;;;3.47;2.47;;;9.70;99.90;;;;;;4973948;28;20034;-68
2022/11/17 08:13:21;;;;;;;5.70;2.25;;;9.70;99.90;;;;;;4956787;28;20023;-68
2022/11/17 08:15:46;;;;;;;6.72;3.15;;;9.70;99.90;;;;;;4956651;28;20019;-68
2022/11/17 08:18:13;;;;;;;5.80;2.78;;;9.70;99.90;;;;;;4956910;28;20023;-68
2022/11/17 08:20:38;;;;;;;3.83;2.50;;;9.70;99.90;;;;;;4974136;28;20093;-68
2022/11/17 08:23:04;;;;;;;7.75;2.65;;;9.70;99.90;;;;;;4956569;28;20023;-68
2022/11/17 08:25:29;;;;;;;6.32;2.45;;;9.70;99.90;;;;;;4957327;28;20027;-68
2022/11/17 08:27:56;;;;;;;6.93;2.40;;;9.70;99.90;;;;;;4956727;28;20034;-68
2022/11/17 08:30:23;;;;;;;3.33;2.20;;;9.70;99.90;;;;;;4957905;28;20031;-68
2022/11/17 08:32:53;;;;;;;6.28;2.60;;;9.80;99.90;;;;;;4974035;28;20050;-68
2022/11/17 08:35:24;;;;;;;6.93;2.60;;;9.80;99.90;;;;;;4956429;28;20050;-68
2022/11/17 08:37:50;;;;;;;7.35;2.80;;;9.90;99.90;;;;;;4958515;28;20109;-68
2022/11/17 08:40:19;;;;;;;7.25;3.35;;;9.90;99.90;;;;;;4959868;28;20474;-68
2022/11/17 08:42:45;;;;;;;4.20;2.80;;;9.90;99.90;;;;;;4977172;28;20101;-68
2022/11/17 08:45:11;;;;;;;4.72;2.88;;;9.80;99.90;;;;;;4959913;28;20030;-68
2022/11/17 08:47:38;;;;;;;3.08;2.63;;;9.80;99.90;;;;;;4959779;28;20029;-68
2022/11/17 08:50:05;;;;;;;4.95;2.72;;;9.90;99.90;;;;;;4959778;28;20031;-68
2022/11/17 08:52:30;;;;;;;6.03;3.22;;;9.80;99.90;;;;;;4959729;28;20027;-68
2022/11/17 08:54:56;;;;;;;4.85;3.03;;;9.90;99.90;;;;;;4977343;28;20023;-68
2022/11/17 08:57:22;;;;;;;9.13;3.95;;;9.90;99.90;;;;;;4960450;28;20025;-68
2022/11/17 08:59:48;;;;;;;9.38;3.28;;;9.90;99.90;;;;;;4960207;28;20015;-68
2022/11/17 09:02:14;;;;;;;8.82;3.83;;;9.90;99.90;;;;;;4959606;28;20023;-68
2022/11/17 09:04:39;;;;;;;9.77;3.28;;;9.80;99.90;;;;;;4959693;28;20478;-68
2022/11/17 09:07:05;;;;;;;6.88;2.75;;;9.90;99.90;;;;;;4977087;28;20066;-68
2022/11/17 09:09:31;;;;;;;14.05;3.15;;;9.90;99.90;;;;;;4976715;28;20034;-68
2022/11/17 09:11:58;;;;;;;9.23;3.10;;;9.90;99.90;;;;;;4959613;28;20073;-68
2022/11/17 09:14:24;;;;;;;4.60;2.70;;;9.90;99.90;;;;;;4977172;28;20031;-68
2022/11/17 09:16:49;;;;;;;5.88;2.80;;;10.00;99.90;;;;;;4959344;28;20181;-68
2022/11/17 09:19:15;;;;;;;3.78;2.80;;;9.90;99.90;;;;;;4959199;28;20510;-68
2022/11/17 09:21:41;;;;;;;13.95;3.15;;;9.90;99.90;;;;;;4976614;28;20126;-68
2022/11/17 09:24:07;;;;;;;6.57;3.20;;;10.00;99.90;;;;;;4976514;28;20105;-68
2022/11/17 09:26:33;;;;;;;6.88;3.40;;;10.10;99.90;;;;;;4976440;28;20390;-68
2022/11/17 09:29:02;;;;;;;6.35;2.83;;;10.00;99.90;;;;;;4976276;28;20038;-68
2022/11/17 09:31:28;;;;;;;6.30;3.00;;;10.10;99.90;;;;;;4959849;28;20382;-68
2022/11/17 09:33:54;;;;;;;4.05;2.75;;;10.20;99.90;;;;;;4960175;28;20446;-68
2022/11/17 09:36:19;;;;;;;6.50;2.72;;;10.20;99.90;;;;;;4959368;28;20232;-68
2022/11/17 09:38:45;;;;;;;5.03;3.00;;;10.30;99.90;;;;;;4958854;28;20025;-68
2022/11/17 09:41:20;;;;;;;3.05;2.20;;;10.30;99.90;;;;;;4959121;28;20034;-69
2022/11/17 09:44:04;;;;;;;3.97;2.78;;;10.30;99.90;;;;;;4958935;28;20031;-69
2022/11/17 09:46:54;;;;;;;5.78;3.10;;;10.30;99.90;;;;;;4958805;28;20027;-69
2022/11/17 09:49:57;;;;;;;4.88;2.63;;;10.40;99.90;;;;;;4974808;28;20403;-68
2022/11/17 09:52:55;;;;;;;6.00;2.45;;;10.40;99.90;;;;;;4975881;28;20034;-68
2022/11/17 09:55:30;;;;;;;7.93;2.03;;;10.50;99.90;;;;;;4975948;28;20494;-68
2022/11/17 09:58:20;;;;;;;5.72;2.20;;;10.50;99.90;;;;;;4959534;28;20023;-68
2022/11/17 10:00:51;;;;;;;7.68;3.30;;;10.60;99.90;;;;;;4959215;28;20028;-68
2022/11/17 10:03:36;;;;;;;6.22;2.15;;;10.60;99.90;;;;;;4958677;28;20033;-68
2022/11/17 10:06:11;;;;;;;4.43;2.10;;;10.70;99.90;;;;;;4959119;28;20125;-68
2022/11/17 10:08:50;;;;;;;7.53;2.20;;;10.70;99.90;;;;;;4958314;28;20557;-68
2022/11/17 10:11:31;;;;;;;8.98;1.67;;;10.70;99.90;;;;;;4958231;28;20573;-68
2022/11/17 10:14:02;;;;;;;4.95;1.60;;;10.80;99.90;;;;;;4958275;28;20018;-68
2022/11/17 10:16:29;;;;;;;3.75;1.85;;;10.80;99.90;;;;;;4958196;28;20047;-68
2022/11/17 10:18:56;;;;;;;5.00;1.67;;;10.80;99.90;;;;;;4958507;28;20033;-68
2022/11/17 10:21:22;;;;;;;5.70;1.45;;;10.90;99.90;;;;;;4958112;28;20032;-68
2022/11/17 10:23:57;;;;;;;2.00;1.23;;;10.90;99.90;;;;;;4958324;28;20081;-68
2022/11/17 10:26:23;;;;;;;3.83;1.70;;;10.90;99.90;;;;;;4958666;28;20026;-68
2022/11/17 10:29:05;;;;;;;2.47;1.65;;;11.00;99.90;;;;;;4958276;28;20037;-69
2022/11/17 10:31:40;;;;;;;7.60;1.35;;;11.00;99.90;;;;;;4957790;28;20394;-69
2022/11/17 10:34:09;;;;;;;2.03;1.10;;;11.10;99.90;;;;;;4975308;28;20034;-69
2022/11/17 10:36:34;;;;;;;5.32;0.88;;;11.10;99.90;;;;;;4975176;28;20030;-69
2022/11/17 10:39:00;;;;;;;10.35;1.20;;;11.20;99.90;;;;;;4975057;28;20042;-68
2022/11/17 10:41:37;;;;;;;3.92;0.93;;;11.20;99.90;;;;;;4958098;28;20037;-68
2022/11/17 10:44:28;;;;;;;2.90;0.90;;;11.30;99.90;;;;;;4975079;28;20058;-68
2022/11/17 10:46:59;;;;;;;7.90;0.83;;;11.20;99.90;;;;;;4957902;28;20053;-68
2022/11/17 10:49:33;;;;;;;7.87;1.13;;;11.20;99.90;;;;;;4958397;28;20031;-68
2022/11/17 10:52:06;;;;;;;6.90;0.90;;;11.30;99.90;;;;;;4957607;28;20066;-68
2022/11/17 10:54:31;;;;;;;2.75;1.10;;;11.30;99.90;;;;;;4974316;28;20023;-68
2022/11/17 10:56:59;;;;;;;3.35;0.88;;;11.30;99.90;;;;;;4975209;28;20026;-68
2022/11/17 10:59:30;;;;;;;5.07;0.85;;;11.30;99.90;;;;;;4957117;28;20027;-68
2022/11/17 11:01:56;;;;;;;2.42;0.40;;;11.20;99.90;;;;;;4974941;28;20034;-68
2022/11/17 11:04:29;;;;;;;2.72;0.47;;;11.30;99.90;;;;;;4957852;28;20026;-68
2022/11/17 11:07:19;;;;;;;4.50;0.77;;;11.30;99.90;;;;;;4974739;28;20110;-68
2022/11/17 11:10:12;;;;;;;2.45;0.75;;;11.30;99.90;;;;;;4957243;28;20058;-68
2022/11/17 11:13:02;;;;;;;6.38;1.27;;;11.40;99.90;;;;;;4958082;28;20035;-68
2022/11/17 11:15:33;;;;;;;2.88;0.55;;;11.30;99.90;;;;;;4957218;28;20022;-68
2022/11/17 11:17:59;;;;;;;1.27;0.40;;;11.40;99.90;;;;;;4974830;28;20027;-68
2022/11/17 11:20:51;;;;;;;3.30;1.27;;;11.30;99.90;;;;;;4974499;28;20027;-68
2022/11/17 11:23:29;;;;;;;3.33;0.63;;;11.30;99.90;;;;;;4942676;28;20027;-68
2022/11/17 11:26:21;;;;;;;4.05;0.68;;;11.40;99.90;;;;;;4957217;28;20027;-68
2022/11/17 11:28:47;;;;;;;;;;;11.40;99.90;;;;;;4957940;28;20034;-68
2022/11/17 11:31:26;;;;;;;5.63;0.73;;;11.50;99.90;;;;;;4956971;28;20332;-68
2022/11/17 11:34:29;;;;;;;5.05;0.70;;;11.50;99.90;;;;;;4974638;28;20027;-68
2022/11/17 11:37:08;;;;;;;1.48;0.50;;;11.50;99.90;;;;;;4974268;28;20019;-68
2022/11/17 11:39:44;;;;;;;0.73;0.50;;;11.50;99.90;;;;;;4974349;28;20042;-68
2022/11/17 11:42:18;;;;;;;3.40;1.50;;;11.40;99.90;;;;;;4974576;28;20027;-68
2022/11/17 11:45:15;;;;;;;4.72;0.73;;;11.50;99.90;;;;;;4957168;28;20026;-68
2022/11/17 11:48:14;;;;;;;6.90;1.50;;;11.60;99.90;;;;;;4974366;28;20085;-68
2022/11/17 11:51:00;;;;;;;2.03;0.80;;;11.60;99.90;;;;;;4974215;28;20086;-68
2022/11/17 11:54:05;;;;;;;3.22;0.70;;;11.60;99.90;;;;;;4956987;28;20061;-68
2022/11/17 11:56:37;;;;;;;6.90;0.55;;;11.70;99.90;;;;;;4956383;28;20049;-68
2022/11/17 11:59:06;;;;;;;7.28;2.47;;;11.80;99.90;;;;;;4974043;28;20161;-68
2022/11/17 12:01:56;;;;;;;4.70;0.55;;;11.90;99.90;;;;;;4957016;28;20054;-68
2022/11/17 12:04:53;;;;;;;4.85;0.70;;;12.00;99.90;;;;;;4974166;28;20422;-68
2022/11/17 12:07:39;;;;;;;4.72;0.70;;;12.00;99.90;;;;;;4956871;28;20486;-68
2022/11/17 12:10:26;;;;;;;3.33;0.57;;;12.00;99.90;;;;;;4957104;28;20031;-68
2022/11/17 12:12:52;;;;;;;2.53;0.60;;;12.00;99.90;;;;;;4959997;28;20054;-68
2022/11/17 12:15:18;;;;;;;7.82;1.58;;;12.00;99.90;;;;;;4960727;28;20062;-68
2022/11/17 12:17:59;;;;;;;2.65;1.17;;;11.90;99.90;;;;;;4977620;28;20019;-68
2022/11/17 12:20:48;;;;;;;6.53;0.77;;;11.90;99.90;;;;;;4960459;28;20026;-68
2022/11/17 12:23:36;;;;;;;1.92;0.50;;;12.00;99.90;;;;;;4977682;28;20106;-68
2022/11/17 12:26:02;;;;;;;2.17;0.63;;;12.00;99.90;;;;;;4977582;28;20027;-68
2022/11/17 12:28:37;;;;;;;6.75;0.90;;;12.00;99.90;;;;;;4960977;28;20062;-68
2022/11/17 12:31:08;;;;;;;2.78;0.80;;;12.00;99.90;;;;;;4960039;28;20494;-68
2022/11/17 12:33:52;;;;;;;3.38;1.23;;;12.00;99.90;;;;;;4977586;28;20023;-68
2022/11/17 12:36:25;;;;;;;5.25;0.68;;;12.00;99.90;;;;;;4960042;28;20038;-68
2022/11/17 12:38:52;;;;;;;1.63;0.68;;;12.10;99.90;;;;;;4977495;28;20022;-68
2022/11/17 12:41:56;;;;;;;2.70;1.25;;;12.20;99.90;;;;;;4977316;28;20054;-68
2022/11/17 12:44:37;;;;;;;3.83;1.00;;;12.10;99.90;;;;;;4936696;29;20115;-68
2022/11/17 12:47:19;;;;;;;6.90;1.08;;;12.20;99.90;;;;;;4921177;29;20103;-68
2022/11/17 12:50:15;;;;;;;1.80;0.75;;;12.20;99.90;;;;;;4920856;29;20181;-68
2022/11/17 12:52:52;;;;;;;6.38;1.00;;;12.30;99.90;;;;;;4920845;29;20047;-68
2022/11/17 12:55:24;;;;;;;2.85;0.80;;;12.20;99.90;;;;;;4937074;29;20083;-69
2022/11/17 12:57:59;;;;;;;7.53;0.80;;;12.40;99.90;;;;;;4936533;29;20039;-69
2022/11/17 13:00:27;;;;;;;4.03;1.08;;;12.50;99.90;;;;;;4936606;29;20036;-69
2022/11/17 13:03:04;;;;;;;3.47;0.82;;;12.60;99.90;;;;;;4936616;29;20542;-69
2022/11/17 13:05:29;;;;;;;3.83;1.35;;;12.60;99.90;;;;;;4920480;29;20032;-68
2022/11/17 13:08:22;;;;;;;7.03;1.02;;;12.80;99.90;;;;;;4936170;29;20516;-68
2022/11/17 13:10:49;;;;;;;3.38;0.90;;;12.80;99.90;;;;;;4936250;29;20063;-69
2022/11/17 13:13:18;;;;;;;6.25;0.70;;;12.70;99.90;;;;;;4920344;29;20059;-69
2022/11/17 13:15:47;;;;;;;5.30;0.70;;;12.60;99.90;;;;;;4920347;29;20094;-69
2022/11/17 13:18:21;;;;;;;1.92;0.70;;;12.60;99.90;;;;;;4920292;29;20054;-69
2022/11/17 13:20:48;;;;;;;5.65;0.88;;;12.60;99.90;;;;;;4944856;28;20043;-68
2022/11/17 13:23:20;;;;;;;4.57;0.85;;;12.60;99.90;;;;;;4976584;28;20048;-68
2022/11/17 13:25:45;;;;;;;6.63;1.00;;;12.60;99.90;;;;;;4959291;28;20058;-68
2022/11/17 13:28:29;;;;;;;3.08;0.80;;;12.70;99.90;;;;;;4959182;28;20065;-68
2022/11/17 13:30:55;;;;;;;3.47;0.77;;;12.70;99.90;;;;;;4976375;28;20041;-68
2022/11/17 13:33:22;;;;;;;7.57;0.50;;;12.70;99.90;;;;;;4959498;28;20027;-68
2022/11/17 13:35:50;;;;;;;9.27;1.15;;;12.60;99.90;;;;;;4959001;28;20031;-68
2022/11/17 13:38:22;;;;;;;7.03;1.73;;;12.60;99.90;;;;;;4958937;28;20397;-69
2022/11/17 13:40:52;;;;;;;5.75;0.90;;;12.60;99.90;;;;;;4958931;28;20122;-69
2022/11/17 13:43:23;;;;;;;6.90;1.27;;;12.60;99.90;;;;;;4976278;28;20029;-69